createdAt,value
2019-06-01T00:01:48.858Z,21.12
2019-06-01T00:04:18.834Z,21.10
2019-06-01T00:06:49.026Z,20.82
2019-06-01T00:09:19.227Z,21.08
2019-06-01T00:11:49.658Z,21.16
2019-06-01T00:14:19.763Z,21.16
2019-06-01T00:16:50.413Z,20.91
2019-06-01T00:19:20.514Z,20.99
2019-06-01T00:21:50.455Z,21.00
2019-06-01T00:24:20.418Z,20.73
2019-06-01T00:26:50.327Z,21.00
2019-06-01T00:29:20.277Z,20.98
2019-06-01T00:31:50.247Z,20.73
2019-06-01T00:34:20.238Z,20.95
2019-06-01T00:36:50.223Z,20.76
2019-06-01T00:39:20.080Z,20.72
2019-06-01T00:41:50.280Z,20.85
2019-06-01T00:44:20.133Z,20.74
2019-06-01T00:46:50.767Z,20.74
2019-06-01T00:49:20.818Z,20.61
2019-06-01T00:51:52.140Z,20.85
2019-06-01T00:54:22.487Z,20.70
2019-06-01T00:56:53.726Z,20.63
2019-06-01T00:59:23.816Z,20.74
2019-06-01T01:01:54.232Z,20.63
2019-06-01T01:04:24.255Z,20.56
2019-06-01T01:06:54.824Z,20.47
2019-06-01T01:09:24.679Z,20.65
2019-06-01T01:11:55.324Z,20.65
2019-06-01T01:14:25.237Z,20.73
2019-06-01T01:16:55.782Z,20.67
2019-06-01T01:19:25.714Z,20.57
2019-06-01T01:21:56.470Z,20.49
2019-06-01T01:24:26.318Z,20.38
2019-06-01T01:26:56.782Z,20.31
2019-06-01T01:29:27.002Z,20.42
2019-06-01T01:31:57.363Z,20.41
2019-06-01T01:34:27.312Z,20.54
2019-06-01T01:36:58.087Z,20.51
2019-06-01T01:39:28.003Z,20.52
2019-06-01T01:41:58.632Z,20.17
2019-06-01T01:44:28.550Z,20.29
2019-06-01T01:46:59.059Z,20.37
2019-06-01T01:49:28.991Z,20.45
2019-06-01T01:51:59.548Z,20.44
2019-06-01T01:54:29.446Z,20.41
2019-06-01T01:56:59.344Z,20.35
2019-06-01T01:59:29.278Z,19.87
2019-06-01T02:01:59.153Z,20.20
2019-06-01T02:04:29.080Z,20.16
2019-06-01T02:07:00.193Z,20.30
2019-06-01T02:09:30.302Z,20.37
2019-06-01T02:12:00.181Z,20.27
2019-06-01T02:14:30.075Z,20.35
2019-06-01T02:17:00.342Z,19.97
2019-06-01T02:19:30.251Z,20.16
2019-06-01T02:22:00.757Z,20.34
2019-06-01T02:24:30.750Z,19.73
2019-06-01T02:27:01.290Z,20.17
2019-06-01T02:29:31.335Z,20.25
2019-06-01T02:32:01.917Z,20.16
2019-06-01T02:34:32.852Z,20.23
2019-06-01T02:37:04.433Z,19.90
2019-06-01T02:39:34.516Z,20.10
2019-06-01T02:42:05.458Z,20.01
2019-06-01T02:44:35.533Z,20.16
2019-06-01T02:47:06.337Z,19.94
2019-06-01T02:49:36.364Z,20.07
2019-06-01T02:52:06.852Z,20.04
2019-06-01T02:54:36.755Z,20.21
2019-06-01T02:57:06.688Z,19.99
2019-06-01T02:59:36.599Z,20.07
2019-06-01T03:02:11.887Z,20.12
2019-06-01T03:04:38.641Z,20.02
2019-06-01T03:07:11.474Z,20.14
2019-06-01T03:09:42.232Z,20.01
2019-06-01T03:12:15.391Z,19.95
2019-06-01T03:14:49.432Z,19.93
2019-06-01T03:17:22.835Z,19.90
2019-06-01T03:19:57.071Z,19.98
2019-06-01T03:22:28.568Z,19.95
2019-06-01T03:25:03.850Z,20.17
2019-06-01T03:27:36.349Z,19.82
2019-06-01T03:30:12.213Z,19.89
2019-06-01T03:32:41.322Z,19.85
2019-06-01T03:35:11.264Z,19.88
2019-06-01T03:37:41.131Z,20.03
2019-06-01T03:40:23.247Z,20.22
2019-06-01T03:42:42.834Z,20.03
2019-06-01T03:45:13.338Z,20.37
2019-06-01T03:47:43.839Z,20.29
2019-06-01T03:50:13.788Z,20.16
2019-06-01T03:52:43.659Z,19.32
2019-06-01T03:55:13.685Z,20.05
2019-06-01T03:57:57.991Z,21.40
2019-06-01T04:00:38.410Z,21.44
2019-06-01T04:03:21.182Z,21.06
2019-06-01T04:05:58.797Z,20.96
2019-06-01T04:08:40.212Z,21.37
2019-06-01T04:11:22.822Z,21.80
2019-06-01T04:13:59.297Z,21.57
2019-06-01T04:16:37.611Z,21.14
2019-06-01T04:19:28.660Z,22.51
2019-06-01T04:22:04.116Z,23.16
2019-06-01T04:24:38.546Z,22.71
2019-06-01T04:27:13.509Z,22.80
2019-06-01T04:30:20.242Z,22.71
2019-06-01T04:32:49.262Z,22.35
2019-06-01T04:35:15.401Z,22.88
2019-06-01T04:37:49.383Z,23.84
2019-06-01T04:40:27.795Z,23.76
2019-06-01T04:43:07.876Z,24.35
2019-06-01T04:45:51.763Z,24.78
2019-06-01T04:48:42.115Z,23.48
2019-06-01T04:51:13.353Z,23.01
2019-06-01T04:53:43.380Z,22.50
2019-06-01T04:56:13.438Z,22.25
2019-06-01T04:58:43.371Z,22.85
2019-06-01T05:01:13.359Z,23.12
2019-06-01T05:03:43.260Z,23.36
2019-06-01T05:06:13.463Z,23.92
2019-06-01T05:08:43.378Z,24.38
2019-06-01T05:11:13.602Z,24.04
2019-06-01T05:13:43.483Z,24.75
2019-06-01T05:16:14.886Z,24.74
2019-06-01T05:18:45.162Z,26.65
2019-06-01T05:21:15.291Z,25.46
2019-06-01T05:23:45.405Z,26.10
2019-06-01T05:26:15.323Z,26.08
2019-06-01T05:28:45.186Z,24.31
2019-06-01T05:31:24.295Z,24.36
2019-06-01T05:33:46.724Z,23.81
2019-06-01T05:36:16.604Z,23.29
2019-06-01T05:38:46.495Z,22.92
2019-06-01T05:41:16.709Z,22.90
2019-06-01T05:43:46.606Z,22.29
2019-06-01T05:46:16.490Z,22.26
2019-06-01T05:48:46.678Z,22.23
2019-06-01T05:51:18.486Z,22.24
2019-06-01T05:53:48.234Z,22.11
2019-06-01T05:56:18.952Z,22.68
2019-06-01T05:58:48.950Z,22.29
2019-06-01T06:01:19.670Z,21.85
2019-06-01T06:03:49.613Z,21.39
2019-06-01T06:06:19.935Z,21.97
2019-06-01T06:08:49.842Z,22.17
2019-06-01T06:11:19.721Z,21.73
2019-06-01T06:13:49.601Z,22.67
2019-06-01T06:16:20.862Z,22.65
2019-06-01T06:18:51.146Z,22.33
2019-06-01T06:21:22.294Z,21.83
2019-06-01T06:23:52.322Z,21.71
2019-06-01T06:26:22.834Z,21.50
2019-06-01T06:28:52.895Z,21.69
2019-06-01T06:31:23.291Z,22.71
2019-06-01T06:33:56.960Z,23.03
2019-06-01T06:36:25.098Z,22.30
2019-06-01T06:38:54.983Z,23.05
2019-06-01T06:41:24.922Z,23.27
2019-06-01T06:43:54.805Z,23.20
2019-06-01T06:46:24.952Z,22.50
2019-06-01T06:48:54.876Z,23.07
2019-06-01T06:51:25.545Z,22.07
2019-06-01T06:53:55.618Z,23.14
2019-06-01T06:56:26.165Z,23.51
2019-06-01T06:58:56.085Z,23.79
2019-06-01T07:01:26.982Z,23.61
2019-06-01T07:04:11.791Z,23.77
2019-06-01T07:06:28.823Z,24.05
2019-06-01T07:08:58.724Z,24.03
2019-06-01T07:11:29.450Z,23.23
2019-06-01T07:13:59.378Z,24.02
2019-06-01T07:16:29.270Z,23.98
2019-06-01T07:18:59.362Z,24.35
2019-06-01T07:21:29.279Z,24.04
2019-06-01T07:23:59.183Z,24.38
2019-06-01T07:26:29.067Z,24.55
2019-06-01T07:28:59.128Z,23.71
2019-06-01T07:31:29.002Z,24.51
2019-06-01T07:33:58.917Z,24.40
2019-06-01T07:36:28.824Z,24.41
2019-06-01T07:38:58.719Z,24.49
2019-06-01T07:41:28.900Z,24.70
2019-06-01T07:43:59.217Z,24.43
2019-06-01T07:46:29.136Z,24.56
2019-06-01T07:48:59.031Z,24.63
2019-06-01T07:51:29.638Z,24.43
2019-06-01T07:53:59.601Z,24.51
2019-06-01T07:56:29.466Z,24.48
2019-06-01T07:58:59.385Z,24.51
2019-06-01T08:01:30.935Z,24.78
2019-06-01T08:04:00.882Z,23.16
2019-06-01T08:06:32.630Z,24.77
2019-06-01T08:09:02.384Z,24.70
2019-06-01T08:11:34.676Z,24.70
2019-06-01T08:14:04.121Z,25.03
2019-06-01T08:16:33.986Z,25.01
2019-06-01T08:19:03.902Z,24.97
2019-06-01T08:21:33.889Z,24.59
2019-06-01T08:24:03.873Z,23.94
2019-06-01T08:26:33.789Z,25.08
2019-06-01T08:29:03.865Z,25.40
2019-06-01T08:31:33.806Z,25.36
2019-06-01T08:34:03.774Z,25.38
2019-06-01T08:36:34.066Z,24.84
2019-06-01T08:39:05.785Z,25.23
2019-06-01T08:41:35.748Z,25.28
2019-06-01T08:44:06.269Z,25.40
2019-06-01T08:46:36.162Z,25.14
2019-06-01T08:49:06.152Z,24.86
2019-06-01T08:51:36.119Z,24.73
2019-06-01T08:54:06.247Z,24.47
2019-06-01T08:56:36.147Z,24.88
2019-06-01T08:59:06.367Z,25.00
2019-06-01T09:01:36.266Z,25.04
2019-06-01T09:04:06.382Z,25.29
2019-06-01T09:06:36.269Z,25.26
2019-06-01T09:09:11.516Z,24.51
2019-06-01T09:11:40.011Z,25.56
2019-06-01T09:14:10.127Z,25.76
2019-06-01T09:16:40.254Z,24.75
2019-06-01T09:19:11.321Z,25.60
2019-06-01T09:21:41.792Z,25.83
2019-06-01T09:24:11.735Z,25.50
2019-06-01T09:26:41.745Z,25.79
2019-06-01T09:29:11.672Z,25.82
2019-06-01T09:31:41.637Z,25.45
2019-06-01T09:34:11.613Z,25.45
2019-06-01T09:36:41.531Z,25.35
2019-06-01T09:39:11.525Z,24.61
2019-06-01T09:41:41.481Z,24.93
2019-06-01T09:44:11.429Z,25.22
2019-06-01T09:46:41.376Z,25.07
2019-06-01T09:49:11.470Z,25.01
2019-06-01T09:51:41.508Z,24.59
2019-06-01T09:54:11.571Z,24.75
2019-06-01T09:56:41.575Z,25.11
2019-06-01T09:59:11.500Z,25.46
2019-06-01T10:01:41.462Z,25.89
2019-06-01T10:04:11.462Z,25.70
2019-06-01T10:06:41.359Z,25.84
2019-06-01T10:09:11.358Z,25.95
2019-06-01T10:11:42.399Z,26.32
2019-06-01T10:14:12.328Z,26.21
2019-06-01T10:16:43.160Z,25.92
2019-06-01T10:19:13.242Z,25.91
2019-06-01T10:21:43.189Z,25.76
2019-06-01T10:24:13.167Z,25.74
2019-06-01T10:26:43.194Z,25.22
2019-06-01T10:29:13.226Z,25.47
2019-06-01T10:31:43.224Z,25.51
2019-06-01T10:34:13.310Z,25.15
2019-06-01T10:36:43.253Z,25.16
2019-06-01T10:39:13.222Z,25.02
2019-06-01T10:41:43.106Z,24.74
2019-06-01T10:44:13.021Z,25.71
2019-06-01T10:46:42.927Z,25.38
2019-06-01T10:49:12.850Z,25.05
2019-06-01T10:51:42.755Z,24.70
2019-06-01T10:54:12.647Z,25.09
2019-06-01T10:56:42.776Z,25.34
2019-06-01T10:59:12.776Z,25.78
2019-06-01T11:01:42.851Z,25.35
2019-06-01T11:04:12.869Z,25.41
2019-06-01T11:06:48.151Z,25.41
2019-06-01T11:09:14.495Z,24.93
2019-06-01T11:11:44.399Z,25.02
2019-06-01T11:14:14.283Z,25.22
2019-06-01T11:16:44.319Z,25.40
2019-06-01T11:19:14.213Z,25.44
2019-06-01T11:21:44.231Z,25.41
2019-06-01T11:24:14.128Z,24.65
2019-06-01T11:26:44.280Z,25.20
2019-06-01T11:29:14.191Z,25.94
2019-06-01T11:31:44.273Z,25.86
2019-06-01T11:34:14.220Z,26.38
2019-06-01T11:37:03.512Z,26.60
2019-06-01T11:39:15.956Z,25.38
2019-06-01T11:41:45.864Z,25.68
2019-06-01T11:44:15.818Z,25.90
2019-06-01T11:46:46.261Z,25.61
2019-06-01T11:49:20.382Z,25.91
2019-06-01T11:51:47.900Z,25.74
2019-06-01T11:54:17.793Z,25.89
2019-06-01T11:56:47.726Z,25.46
2019-06-01T11:59:21.136Z,25.80
2019-06-01T12:01:49.581Z,25.77
2019-06-01T12:04:19.633Z,26.61
2019-06-01T12:06:49.600Z,25.99
2019-06-01T12:09:19.486Z,26.59
2019-06-01T12:11:50.133Z,26.93
2019-06-01T12:14:20.067Z,26.85
2019-06-01T12:16:49.954Z,26.54
2019-06-01T12:19:19.881Z,26.56
2019-06-01T12:21:49.855Z,26.42
2019-06-01T12:24:24.882Z,26.84
2019-06-01T12:26:51.455Z,26.70
2019-06-01T12:29:21.444Z,27.12
2019-06-01T12:31:51.422Z,27.08
2019-06-01T12:34:21.392Z,27.02
2019-06-01T12:36:51.302Z,26.66
2019-06-01T12:39:21.187Z,27.11
2019-06-01T12:41:51.845Z,27.15
2019-06-01T12:44:21.782Z,27.20
2019-06-01T12:46:52.968Z,27.18
2019-06-01T12:49:23.021Z,27.19
2019-06-01T12:51:53.176Z,27.39
2019-06-01T12:54:23.975Z,26.94
2019-06-01T12:56:53.866Z,26.95
2019-06-01T12:59:23.879Z,27.08
2019-06-01T13:01:53.817Z,27.33
2019-06-01T13:04:23.740Z,27.18
2019-06-01T13:06:54.184Z,27.18
2019-06-01T13:09:24.333Z,26.82
2019-06-01T13:11:54.330Z,27.30
2019-06-01T13:14:24.237Z,27.29
2019-06-01T13:17:06.011Z,27.30
2019-06-01T13:19:25.867Z,27.45
2019-06-01T13:21:56.115Z,26.63
2019-06-01T13:24:27.749Z,27.41
2019-06-01T13:26:59.175Z,27.44
2019-06-01T13:29:29.736Z,27.24
2019-06-01T13:32:00.985Z,27.66
2019-06-01T13:34:34.276Z,27.12
2019-06-01T13:37:05.646Z,27.18
2019-06-01T13:39:36.204Z,27.22
2019-06-01T13:42:07.309Z,27.60
2019-06-01T13:44:37.617Z,27.02
2019-06-01T13:47:08.342Z,27.46
2019-06-01T13:49:40.156Z,27.52
2019-06-01T13:52:11.791Z,27.39
2019-06-01T13:54:44.061Z,27.20
2019-06-01T13:57:15.330Z,27.24
2019-06-01T13:59:46.913Z,26.78
2019-06-01T14:02:18.733Z,26.97
2019-06-01T14:04:49.760Z,27.24
2019-06-01T14:07:19.801Z,27.03
2019-06-01T14:09:51.987Z,26.89
2019-06-01T14:12:21.531Z,27.76
2019-06-01T14:14:51.555Z,27.76
2019-06-01T14:17:21.533Z,27.99
2019-06-01T14:19:51.760Z,27.30
2019-06-01T14:22:21.723Z,27.79
2019-06-01T14:25:06.941Z,27.57
2019-06-01T14:27:23.331Z,27.06
2019-06-01T14:29:54.434Z,27.13
2019-06-01T14:32:24.404Z,27.41
2019-06-01T14:34:54.916Z,27.72
2019-06-01T14:37:24.909Z,27.77
2019-06-01T14:39:55.004Z,27.87
2019-06-01T14:42:25.031Z,27.99
2019-06-01T14:44:55.992Z,28.17
2019-06-01T14:47:25.849Z,28.02
2019-06-01T14:49:55.815Z,27.42
2019-06-01T14:52:25.740Z,27.61
2019-06-01T14:54:55.954Z,27.85
2019-06-01T14:57:25.899Z,26.95
2019-06-01T14:59:56.141Z,27.63
2019-06-01T15:02:26.261Z,27.40
2019-06-01T15:04:56.417Z,27.75
2019-06-01T15:07:28.213Z,27.50
2019-06-01T15:09:58.466Z,27.55
2019-06-01T15:12:30.265Z,27.20
2019-06-01T15:15:00.182Z,27.41
2019-06-01T15:17:30.156Z,27.95
2019-06-01T15:20:00.069Z,28.02
2019-06-01T15:22:29.988Z,28.15
2019-06-01T15:24:59.852Z,27.99
2019-06-01T15:27:29.736Z,28.09
2019-06-01T15:29:59.645Z,28.28
2019-06-01T15:32:29.591Z,28.11
2019-06-01T15:34:59.828Z,27.74
2019-06-01T15:37:30.004Z,26.98
2019-06-01T15:39:59.949Z,27.92
2019-06-01T15:42:29.863Z,28.27
2019-06-01T15:44:59.879Z,27.69
2019-06-01T15:47:29.838Z,28.20
2019-06-01T15:50:02.623Z,28.09
2019-06-01T15:52:31.677Z,28.28
2019-06-01T15:55:02.883Z,28.44
2019-06-01T15:57:32.948Z,28.28
2019-06-01T16:00:03.192Z,28.11
2019-06-01T16:02:33.073Z,28.31
2019-06-01T16:05:03.367Z,28.21
2019-06-01T16:07:33.270Z,28.12
2019-06-01T16:10:07.563Z,28.08
2019-06-01T16:12:34.783Z,28.02
2019-06-01T16:15:05.288Z,28.10
2019-06-01T16:17:35.173Z,28.26
2019-06-01T16:20:06.096Z,27.74
2019-06-01T16:22:36.149Z,27.71
2019-06-01T16:25:06.385Z,27.35
2019-06-01T16:27:36.393Z,27.70
2019-06-01T16:30:06.898Z,28.00
2019-06-01T16:32:39.407Z,27.68
2019-06-01T16:35:09.858Z,27.37
2019-06-01T16:37:39.769Z,27.73
2019-06-01T16:40:11.007Z,27.70
2019-06-01T16:42:40.953Z,27.61
2019-06-01T16:45:11.704Z,28.09
2019-06-01T16:47:41.651Z,28.28
2019-06-01T16:50:12.121Z,28.24
2019-06-01T16:52:42.425Z,28.16
2019-06-01T16:55:13.637Z,28.11
2019-06-01T16:57:43.548Z,28.23
2019-06-01T17:00:15.694Z,27.91
2019-06-01T17:02:45.747Z,27.51
2019-06-01T17:05:16.984Z,26.78
2019-06-01T17:07:47.022Z,28.06
2019-06-01T17:10:26.056Z,28.25
2019-06-01T17:12:49.191Z,28.19
2019-06-01T17:15:19.487Z,28.21
2019-06-01T17:17:49.506Z,27.97
2019-06-01T17:20:48.309Z,27.39
2019-06-01T17:23:26.626Z,27.03
2019-06-01T17:25:50.288Z,27.33
2019-06-01T17:28:20.171Z,27.68
2019-06-01T17:30:50.323Z,28.05
2019-06-01T17:33:20.441Z,27.34
2019-06-01T17:35:50.491Z,27.64
2019-06-01T17:38:20.507Z,27.92
2019-06-01T17:40:50.782Z,27.71
2019-06-01T17:43:20.693Z,27.01
2019-06-01T17:45:50.639Z,27.18
2019-06-01T17:48:26.593Z,27.70
2019-06-01T17:50:52.511Z,27.83
2019-06-01T17:53:22.452Z,27.78
2019-06-01T17:55:52.483Z,27.82
2019-06-01T17:58:22.679Z,27.92
2019-06-01T18:00:52.836Z,27.84
2019-06-01T18:03:22.836Z,27.36
2019-06-01T18:05:52.958Z,27.72
2019-06-01T18:08:22.951Z,27.62
2019-06-01T18:10:55.049Z,27.56
2019-06-01T18:13:25.271Z,27.43
2019-06-01T18:15:55.280Z,27.63
2019-06-01T18:18:25.308Z,27.47
2019-06-01T18:20:55.302Z,27.04
2019-06-01T18:23:25.448Z,27.19
2019-06-01T18:25:55.598Z,26.98
2019-06-01T18:28:25.599Z,27.23
2019-06-01T18:30:55.655Z,27.05
2019-06-01T18:33:25.772Z,27.26
2019-06-01T18:35:56.012Z,27.11
2019-06-01T18:38:25.980Z,27.26
2019-06-01T18:41:08.655Z,27.28
2019-06-01T18:43:27.718Z,27.23
2019-06-01T18:45:58.372Z,27.27
2019-06-01T18:48:28.441Z,27.27
2019-06-01T18:50:58.358Z,27.25
2019-06-01T18:53:28.510Z,27.14
2019-06-01T18:55:58.435Z,27.15
2019-06-01T18:58:28.423Z,27.14
2019-06-01T19:00:59.486Z,27.04
2019-06-01T19:03:29.572Z,26.92
2019-06-01T19:05:59.596Z,26.90
2019-06-01T19:08:29.558Z,26.90
2019-06-01T19:10:59.429Z,26.71
2019-06-01T19:13:29.417Z,26.75
2019-06-01T19:15:59.342Z,26.70
2019-06-01T19:18:29.339Z,26.67
2019-06-01T19:20:59.239Z,26.59
2019-06-01T19:23:29.208Z,26.50
2019-06-01T19:25:59.100Z,26.54
2019-06-01T19:28:29.045Z,26.41
2019-06-01T19:30:58.961Z,26.30
2019-06-01T19:33:28.907Z,26.23
2019-06-01T19:36:00.838Z,26.27
2019-06-01T19:38:34.234Z,26.19
2019-06-01T19:41:04.398Z,26.11
2019-06-01T19:43:34.325Z,26.07
2019-06-01T19:46:04.321Z,26.01
2019-06-01T19:48:34.284Z,25.92
2019-06-01T19:51:04.230Z,25.88
2019-06-01T19:53:34.151Z,25.89
2019-06-01T19:56:04.180Z,25.71
2019-06-01T19:58:34.109Z,25.61
2019-06-01T20:01:04.123Z,25.66
2019-06-01T20:03:34.123Z,25.62
2019-06-01T20:06:04.186Z,25.71
2019-06-01T20:08:34.137Z,25.47
2019-06-01T20:11:04.179Z,25.35
2019-06-01T20:13:34.192Z,25.43
2019-06-01T20:16:04.096Z,25.24
2019-06-01T20:18:34.036Z,25.33
2019-06-01T20:21:06.342Z,25.15
2019-06-01T20:23:36.551Z,25.17
2019-06-01T20:26:06.713Z,25.29
2019-06-01T20:28:36.712Z,25.19
2019-06-01T20:31:06.632Z,25.11
2019-06-01T20:33:36.533Z,25.05
2019-06-01T20:36:06.594Z,24.91
2019-06-01T20:38:36.585Z,25.10
2019-06-01T20:41:06.530Z,24.87
2019-06-01T20:43:36.446Z,24.91
2019-06-01T20:46:06.420Z,24.99
2019-06-01T20:48:36.401Z,24.95
2019-06-01T20:51:06.532Z,24.90
2019-06-01T20:53:36.540Z,24.70
2019-06-01T20:56:06.550Z,24.67
2019-06-01T20:58:36.603Z,24.80
2019-06-01T21:01:11.007Z,24.76
2019-06-01T21:03:40.958Z,24.55
2019-06-01T21:06:10.854Z,24.71
2019-06-01T21:08:40.736Z,24.29
2019-06-01T21:11:10.874Z,24.63
2019-06-01T21:13:40.790Z,24.62
2019-06-01T21:16:10.714Z,24.66
2019-06-01T21:18:41.021Z,24.72
2019-06-01T21:21:11.290Z,24.28
2019-06-01T21:23:41.241Z,24.53
2019-06-01T21:26:11.159Z,24.55
2019-06-01T21:28:41.080Z,24.33
2019-06-01T21:31:11.332Z,24.47
2019-06-01T21:33:41.380Z,24.34
2019-06-01T21:36:11.287Z,24.32
2019-06-01T21:38:41.252Z,23.97
2019-06-01T21:41:11.581Z,24.11
2019-06-01T21:43:41.573Z,24.18
2019-06-01T21:46:11.639Z,24.37
2019-06-01T21:48:41.898Z,24.27
2019-06-01T21:51:11.818Z,24.16
2019-06-01T21:53:41.686Z,24.16
2019-06-01T21:56:11.602Z,24.16
2019-06-01T21:58:44.739Z,23.44
2019-06-01T22:01:14.957Z,23.89
2019-06-01T22:03:44.897Z,23.96
2019-06-01T22:06:15.221Z,24.08
2019-06-01T22:08:52.589Z,24.13
2019-06-01T22:11:21.581Z,24.11
2019-06-01T22:13:51.809Z,24.21
2019-06-01T22:16:21.761Z,24.11
2019-06-01T22:18:51.772Z,24.26
2019-06-01T22:21:21.850Z,23.87
2019-06-01T22:23:52.145Z,24.03
2019-06-01T22:26:22.207Z,23.69
2019-06-01T22:28:52.457Z,23.98
2019-06-01T22:31:22.558Z,23.52
2019-06-01T22:33:52.622Z,23.07
2019-06-01T22:36:22.795Z,23.66
2019-06-01T22:38:53.295Z,23.85
2019-06-01T22:41:23.934Z,23.44
2019-06-01T22:43:54.091Z,23.02
2019-06-01T22:46:26.806Z,23.12
2019-06-01T22:48:57.235Z,23.49
2019-06-01T22:51:27.291Z,23.26
2019-06-01T22:53:57.239Z,22.71
2019-06-01T22:56:27.565Z,22.76
2019-06-01T22:58:57.525Z,21.87
2019-06-01T23:01:28.815Z,22.76
2019-06-01T23:03:59.014Z,23.21
2019-06-01T23:06:29.299Z,22.73
2019-06-01T23:08:59.216Z,21.92
2019-06-01T23:11:29.630Z,22.43
2019-06-01T23:13:59.623Z,22.95
2019-06-01T23:16:29.814Z,23.00
2019-06-01T23:18:59.721Z,23.05
2019-06-01T23:21:32.031Z,22.20
2019-06-01T23:24:02.437Z,22.33
2019-06-01T23:26:32.578Z,22.66
2019-06-01T23:29:02.704Z,22.35
2019-06-01T23:31:32.688Z,21.65
2019-06-01T23:34:02.691Z,22.42
2019-06-01T23:36:38.750Z,22.11
2019-06-01T23:39:08.982Z,22.42
2019-06-01T23:44:12.166Z,22.19
2019-06-01T23:46:39.727Z,22.04
2019-06-01T23:49:09.642Z,21.54
2019-06-01T23:51:42.882Z,21.36
2019-06-01T23:54:12.819Z,21.91
2019-06-01T23:56:42.847Z,21.83
2019-06-01T23:59:12.760Z,22.31
